Airway Heights, Washington
Current Conditions -  °F | °C
As of 12:02 PM on Friday 19 Dec 2014 (Local Time) from KGEG Reporting Station
Broken Clouds Broken Clouds  
Wind Chill: 34°   Ceiling: 1800
Heat Index: 41°   Visibility: 10mi
Dew Point: 37°   Wind: 13mph
Humidity: 86%   Direction: 190°S
Pressure: 29.88"   Gusts: 22mph
Location:  47.64°N, 117.59°W
Report Text: KGEG 192002Z 19011G19KT 10SM BKN018 05/03 A2988 RMK AO2 T00500028
Loading
Personal Weather Stations






























Interactive Weather Map New forecast layout! Learn more

10-Day Weather Forecast

Advertisements
Track Severe Weather on mobile